Impacts METAR Board
IDs:

KDEN - Denver Intl, CO, US

Updated at: 1300 UTC 05 Apr 2020
Potential Impact None Slight Moderate High
Time 05/01Z 05/02Z 05/03Z 05/04Z 05/05Z 05/06Z 05/07Z 05/08Z 05/09Z 05/10Z 05/11Z 05/12Z 05/13Z
Temp54 47 42 42 44 40 38 42 42 40 41 37 38
Dewpt29 30 31 30 28 29 29 29 28 28 27 27 27
Altim29.80 29.81 29.82 29.84 29.83 29.83 29.81 29.80 29.79 29.79 29.80 29.80 29.81
VIS10 10 10 10 10 10 10 10 10 10 10 10 10
CIG-- -- -- -- -- -- -- -- -- -- -- -- --
CoverFEWFEWFEWFEWFEWCLRCLRFEWFEWFEWFEWSCTSCT
FltCatVFRVFRVFRVFRVFRVFRVFRVFRVFRVFRVFRVFRVFR
WX--------------------------
WDir90180190160170160180200210240240200230
WSpd5 10 9 11 17 15 12 10 18 8 9 6 8
WGst-- -- -- -- -- -- -- -- -- -- -- -- --
Raw hourly METARs
KDEN 050053Z 09005KT 10SM FEW110 FEW250 12/M02 A2980 RMK AO2 SLP075 T01221017
KDEN 050153Z 18010KT 10SM FEW120 FEW250 08/M01 A2981 RMK AO2 SLP080 T00831011
KDEN 050253Z 19009KT 10SM FEW120 06/M01 A2982 RMK AO2 SLP091 T00561006 53007
KDEN 050353Z 16011KT 10SM FEW120 06/M01 A2984 RMK AO2 SLP091 T00561011
KDEN 050453Z 17017KT 10SM FEW120 07/M02 A2983 RMK AO2 SLP080 T00671022
KDEN 050553Z 16015KT 10SM CLR 04/M02 A2983 RMK AO2 SLP075 T00441017 10144 20044 50001
KDEN 050653Z 18012KT 10SM CLR 03/M02 A2981 RMK AO2 SLP064 T00331017 401501044
KDEN 050753Z 20010KT 10SM FEW110 06/M02 A2980 RMK AO2 SLP053 T00561017
KDEN 050853Z 21018KT 10SM FEW110 06/M02 A2979 RMK AO2 SLP050 T00561022 56010
KDEN 050953Z 24008KT 10SM FEW110 04/M02 A2979 RMK AO2 SLP050 T00441022
KDEN 051053Z 24009KT 10SM FEW110 FEW220 05/M03 A2980 RMK AO2 SLP053 T00501028
KDEN 051153Z 20006KT 10SM FEW110 SCT220 03/M03 A2980 RMK AO2 SLP060 T00281028 10061 20028 53003
KDEN 051253Z 23008KT 10SM FEW110 SCT220 03/M03 A2981 RMK AO2 SLP068 T00331028



Page loaded:  13:55 UTC  |   06:55 AM Pacific  |   07:55 AM Mountain  |   08:55 AM Central  |   09:55 AM Eastern

 

ADVISORIES

FORECASTS

FORECASTS

OBSERVATIONS

USER TOOLS

ABOUT US